sensor_id;sensor_type;location;lat;lon;timestamp;P1;durP1;ratioP1;P2;durP2;ratioP2
18999;SDS011;9633;50.980;13.850;2022-12-18T00:00:24;30.75;;;14.23;;
18999;SDS011;9633;50.980;13.850;2022-12-18T00:01:58;36.90;;;15.65;;
18999;SDS011;9633;50.980;13.850;2022-12-18T00:03:31;38.25;;;15.57;;
18999;SDS011;9633;50.980;13.850;2022-12-18T00:05:05;37.35;;;17.13;;
18999;SDS011;9633;50.980;13.850;2022-12-18T00:06:39;34.35;;;16.35;;
18999;SDS011;9633;50.980;13.850;2022-12-18T00:08:12;36.15;;;16.33;;
18999;SDS011;9633;50.980;13.850;2022-12-18T00:09:45;37.22;;;15.65;;
18999;SDS011;9633;50.980;13.850;2022-12-18T00:11:18;34.17;;;15.25;;
18999;SDS011;9633;50.980;13.850;2022-12-18T00:12:53;32.85;;;15.32;;
18999;SDS011;9633;50.980;13.850;2022-12-18T00:14:27;34.05;;;15.80;;
18999;SDS011;9633;50.980;13.850;2022-12-18T00:16:01;35.38;;;16.40;;
18999;SDS011;9633;50.980;13.850;2022-12-18T00:17:36;38.47;;;16.60;;
18999;SDS011;9633;50.980;13.850;2022-12-18T00:19:09;32.72;;;15.45;;
18999;SDS011;9633;50.980;13.850;2022-12-18T00:20:43;33.33;;;15.88;;
18999;SDS011;9633;50.980;13.850;2022-12-18T00:22:16;35.58;;;15.23;;
18999;SDS011;9633;50.980;13.850;2022-12-18T00:23:49;36.05;;;15.70;;
18999;SDS011;9633;50.980;13.850;2022-12-18T00:25:22;34.08;;;14.85;;
18999;SDS011;9633;50.980;13.850;2022-12-18T00:26:56;33.05;;;14.57;;
18999;SDS011;9633;50.980;13.850;2022-12-18T00:28:29;33.60;;;15.00;;
18999;SDS011;9633;50.980;13.850;2022-12-18T00:30:02;38.00;;;15.93;;
18999;SDS011;9633;50.980;13.850;2022-12-18T00:31:36;30.25;;;14.65;;
18999;SDS011;9633;50.980;13.850;2022-12-18T00:33:09;32.85;;;14.07;;
18999;SDS011;9633;50.980;13.850;2022-12-18T00:34:42;33.25;;;14.93;;
18999;SDS011;9633;50.980;13.850;2022-12-18T00:36:16;32.47;;;14.30;;
18999;SDS011;9633;50.980;13.850;2022-12-18T00:37:50;30.05;;;14.55;;
18999;SDS011;9633;50.980;13.850;2022-12-18T00:39:23;32.90;;;15.52;;
18999;SDS011;9633;50.980;13.850;2022-12-18T00:40:56;34.65;;;15.98;;
18999;SDS011;9633;50.980;13.850;2022-12-18T00:42:28;36.40;;;15.98;;
18999;SDS011;9633;50.980;13.850;2022-12-18T00:44:19;35.00;;;14.85;;
18999;SDS011;9633;50.980;13.850;2022-12-18T00:45:54;32.22;;;14.27;;
18999;SDS011;9633;50.980;13.850;2022-12-18T00:47:27;30.40;;;13.95;;
18999;SDS011;9633;50.980;13.850;2022-12-18T00:49:00;27.90;;;13.52;;
18999;SDS011;9633;50.980;13.850;2022-12-18T00:50:33;29.55;;;13.52;;
18999;SDS011;9633;50.980;13.850;2022-12-18T00:52:06;36.67;;;14.32;;
18999;SDS011;9633;50.980;13.850;2022-12-18T00:53:38;28.38;;;13.35;;
18999;SDS011;9633;50.980;13.850;2022-12-18T00:55:12;27.90;;;14.05;;
18999;SDS011;9633;50.980;13.850;2022-12-18T00:56:46;29.50;;;13.05;;
18999;SDS011;9633;50.980;13.850;2022-12-18T00:58:21;25.45;;;12.93;;
18999;SDS011;9633;50.980;13.850;2022-12-18T00:59:53;29.67;;;13.45;;
18999;SDS011;9633;50.980;13.850;2022-12-18T01:01:28;26.35;;;12.38;;
18999;SDS011;9633;50.980;13.850;2022-12-18T01:03:02;28.75;;;12.70;;
18999;SDS011;9633;50.980;13.850;2022-12-18T01:04:36;28.02;;;13.20;;
18999;SDS011;9633;50.980;13.850;2022-12-18T01:06:11;32.17;;;13.80;;
18999;SDS011;9633;50.980;13.850;2022-12-18T01:07:46;28.38;;;13.15;;
18999;SDS011;9633;50.980;13.850;2022-12-18T01:09:19;28.95;;;12.50;;
18999;SDS011;9633;50.980;13.850;2022-12-18T01:10:52;32.45;;;13.73;;
18999;SDS011;9633;50.980;13.850;2022-12-18T01:12:25;25.52;;;12.65;;
18999;SDS011;9633;50.980;13.850;2022-12-18T01:13:57;27.63;;;12.45;;
18999;SDS011;9633;50.980;13.850;2022-12-18T01:15:32;28.38;;;13.35;;
18999;SDS011;9633;50.980;13.850;2022-12-18T01:17:06;29.15;;;12.18;;
18999;SDS011;9633;50.980;13.850;2022-12-18T01:18:39;29.58;;;13.05;;
18999;SDS011;9633;50.980;13.850;2022-12-18T01:20:12;26.50;;;13.40;;
18999;SDS011;9633;50.980;13.850;2022-12-18T01:21:45;27.17;;;12.40;;
18999;SDS011;9633;50.980;13.850;2022-12-18T01:23:18;27.33;;;12.10;;
18999;SDS011;9633;50.980;13.850;2022-12-18T01:24:51;26.13;;;11.80;;
18999;SDS011;9633;50.980;13.850;2022-12-18T01:26:26;26.70;;;12.30;;
18999;SDS011;9633;50.980;13.850;2022-12-18T01:28:01;27.60;;;11.63;;
18999;SDS011;9633;50.980;13.850;2022-12-18T01:29:33;27.42;;;12.45;;
18999;SDS011;9633;50.980;13.850;2022-12-18T01:31:10;28.77;;;12.35;;
18999;SDS011;9633;50.980;13.850;2022-12-18T01:32:49;23.98;;;9.80;;
18999;SDS011;9633;50.980;13.850;2022-12-18T01:34:23;24.88;;;10.50;;
18999;SDS011;9633;50.980;13.850;2022-12-18T01:35:55;21.33;;;10.68;;
18999;SDS011;9633;50.980;13.850;2022-12-18T01:37:28;20.70;;;9.88;;
18999;SDS011;9633;50.980;13.850;2022-12-18T01:39:03;24.60;;;10.73;;
18999;SDS011;9633;50.980;13.850;2022-12-18T01:40:36;23.23;;;10.63;;
18999;SDS011;9633;50.980;13.850;2022-12-18T01:42:10;24.35;;;10.52;;
18999;SDS011;9633;50.980;13.850;2022-12-18T01:43:45;23.08;;;9.38;;
18999;SDS011;9633;50.980;13.850;2022-12-18T01:45:24;21.23;;;10.10;;
18999;SDS011;9633;50.980;13.850;2022-12-18T01:46:59;24.02;;;10.13;;
18999;SDS011;9633;50.980;13.850;2022-12-18T01:48:33;19.52;;;10.13;;
18999;SDS011;9633;50.980;13.850;2022-12-18T01:50:07;22.50;;;9.80;;
18999;SDS011;9633;50.980;13.850;2022-12-18T01:51:43;20.23;;;9.45;;
18999;SDS011;9633;50.980;13.850;2022-12-18T01:53:17;20.38;;;9.38;;
18999;SDS011;9633;50.980;13.850;2022-12-18T01:54:53;18.95;;;9.32;;
18999;SDS011;9633;50.980;13.850;2022-12-18T01:56:26;20.25;;;8.77;;
18999;SDS011;9633;50.980;13.850;2022-12-18T01:58:00;18.95;;;9.38;;
18999;SDS011;9633;50.980;13.850;2022-12-18T01:59:33;23.10;;;8.88;;
18999;SDS011;9633;50.980;13.850;2022-12-18T02:01:07;18.42;;;9.32;;
18999;SDS011;9633;50.980;13.850;2022-12-18T02:02:40;19.20;;;9.23;;
18999;SDS011;9633;50.980;13.850;2022-12-18T02:04:20;22.23;;;9.05;;
18999;SDS011;9633;50.980;13.850;2022-12-18T02:05:55;20.08;;;9.60;;
18999;SDS011;9633;50.980;13.850;2022-12-18T02:07:42;20.05;;;8.98;;
18999;SDS011;9633;50.980;13.850;2022-12-18T02:09:26;18.92;;;9.25;;
18999;SDS011;9633;50.980;13.850;2022-12-18T02:11:05;18.48;;;8.98;;
18999;SDS011;9633;50.980;13.850;2022-12-18T02:12:42;19.70;;;9.32;;
18999;SDS011;9633;50.980;13.850;2022-12-18T02:14:21;18.98;;;8.32;;
18999;SDS011;9633;50.980;13.850;2022-12-18T02:16:01;17.33;;;8.18;;
18999;SDS011;9633;50.980;13.850;2022-12-18T02:17:41;16.80;;;8.05;;
18999;SDS011;9633;50.980;13.850;2022-12-18T02:19:25;20.00;;;8.93;;
18999;SDS011;9633;50.980;13.850;2022-12-18T02:21:12;15.68;;;8.30;;
18999;SDS011;9633;50.980;13.850;2022-12-18T02:22:58;19.80;;;8.95;;
18999;SDS011;9633;50.980;13.850;2022-12-18T02:24:41;20.73;;;7.90;;
18999;SDS011;9633;50.980;13.850;2022-12-18T02:26:26;20.55;;;9.13;;
18999;SDS011;9633;50.980;13.850;2022-12-18T02:28:08;18.15;;;9.70;;
18999;SDS011;9633;50.980;13.850;2022-12-18T02:29:46;22.50;;;10.93;;
18999;SDS011;9633;50.980;13.850;2022-12-18T02:31:30;21.70;;;9.82;;
18999;SDS011;9633;50.980;13.850;2022-12-18T02:33:08;21.75;;;10.52;;
18999;SDS011;9633;50.980;13.850;2022-12-18T02:34:43;20.17;;;9.60;;
18999;SDS011;9633;50.980;13.850;2022-12-18T02:36:19;20.27;;;8.93;;
18999;SDS011;9633;50.980;13.850;2022-12-18T02:37:54;18.55;;;9.02;;
18999;SDS011;9633;50.980;13.850;2022-12-18T02:39:28;19.38;;;8.82;;
18999;SDS011;9633;50.980;13.850;2022-12-18T02:41:07;20.75;;;9.80;;
18999;SDS011;9633;50.980;13.850;2022-12-18T02:42:42;24.92;;;9.40;;
18999;SDS011;9633;50.980;13.850;2022-12-18T02:44:19;21.45;;;8.70;;
18999;SDS011;9633;50.980;13.850;2022-12-18T02:45:52;20.65;;;9.43;;
18999;SDS011;9633;50.980;13.850;2022-12-18T02:47:30;18.27;;;8.70;;
18999;SDS011;9633;50.980;13.850;2022-12-18T02:49:09;22.65;;;8.70;;
18999;SDS011;9633;50.980;13.850;2022-12-18T02:50:54;20.05;;;8.27;;
18999;SDS011;9633;50.980;13.850;2022-12-18T02:52:34;19.40;;;9.27;;
18999;SDS011;9633;50.980;13.850;2022-12-18T02:54:16;16.90;;;8.85;;
18999;SDS011;9633;50.980;13.850;2022-12-18T02:56:01;20.00;;;8.82;;
18999;SDS011;9633;50.980;13.850;2022-12-18T02:57:39;15.43;;;7.50;;
18999;SDS011;9633;50.980;13.850;2022-12-18T02:59:15;16.65;;;7.45;;
18999;SDS011;9633;50.980;13.850;2022-12-18T03:00:58;17.35;;;8.50;;
18999;SDS011;9633;50.980;13.850;2022-12-18T03:02:37;16.77;;;7.53;;
18999;SDS011;9633;50.980;13.850;2022-12-18T03:04:18;16.13;;;7.32;;
18999;SDS011;9633;50.980;13.850;2022-12-18T03:05:55;17.48;;;7.18;;
18999;SDS011;9633;50.980;13.850;2022-12-18T03:07:33;19.70;;;8.25;;
18999;SDS011;9633;50.980;13.850;2022-12-18T03:09:13;18.83;;;7.78;;
18999;SDS011;9633;50.980;13.850;2022-12-18T03:10:51;15.50;;;8.00;;
18999;SDS011;9633;50.980;13.850;2022-12-18T03:12:28;16.63;;;7.47;;
18999;SDS011;9633;50.980;13.850;2022-12-18T03:14:03;17.70;;;8.20;;
18999;SDS011;9633;50.980;13.850;2022-12-18T03:15:42;17.23;;;7.68;;
18999;SDS011;9633;50.980;13.850;2022-12-18T03:17:18;17.27;;;7.63;;
18999;SDS011;9633;50.980;13.850;2022-12-18T03:18:56;17.33;;;7.38;;
18999;SDS011;9633;50.980;13.850;2022-12-18T03:20:31;16.88;;;7.60;;
18999;SDS011;9633;50.980;13.850;2022-12-18T03:22:07;15.10;;;6.53;;
18999;SDS011;9633;50.980;13.850;2022-12-18T03:23:48;12.48;;;6.82;;
18999;SDS011;9633;50.980;13.850;2022-12-18T03:25:24;13.95;;;7.32;;
18999;SDS011;9633;50.980;13.850;2022-12-18T03:27:00;15.52;;;6.97;;
18999;SDS011;9633;50.980;13.850;2022-12-18T03:28:36;16.70;;;6.88;;
18999;SDS011;9633;50.980;13.850;2022-12-18T03:30:12;17.10;;;6.82;;
18999;SDS011;9633;50.980;13.850;2022-12-18T03:31:51;16.00;;;6.90;;
18999;SDS011;9633;50.980;13.850;2022-12-18T03:33:31;13.07;;;6.63;;
18999;SDS011;9633;50.980;13.850;2022-12-18T03:35:10;13.80;;;7.03;;
18999;SDS011;9633;50.980;13.850;2022-12-18T03:36:47;14.45;;;7.40;;
18999;SDS011;9633;50.980;13.850;2022-12-18T03:38:20;16.00;;;7.07;;
18999;SDS011;9633;50.980;13.850;2022-12-18T03:39:57;15.68;;;6.55;;
18999;SDS011;9633;50.980;13.850;2022-12-18T03:41:29;16.45;;;7.43;;
18999;SDS011;9633;50.980;13.850;2022-12-18T03:43:27;15.07;;;7.35;;
18999;SDS011;9633;50.980;13.850;2022-12-18T03:45:11;13.52;;;6.78;;
18999;SDS011;9633;50.980;13.850;2022-12-18T03:46:53;14.10;;;6.68;;
18999;SDS011;9633;50.980;13.850;2022-12-18T03:48:31;12.82;;;6.55;;
18999;SDS011;9633;50.980;13.850;2022-12-18T03:50:14;15.05;;;7.50;;
18999;SDS011;9633;50.980;13.850;2022-12-18T03:51:54;13.80;;;7.60;;
18999;SDS011;9633;50.980;13.850;2022-12-18T03:53:33;12.02;;;6.45;;
18999;SDS011;9633;50.980;13.850;2022-12-18T03:55:14;16.33;;;7.75;;
18999;SDS011;9633;50.980;13.850;2022-12-18T03:56:53;17.25;;;7.15;;
18999;SDS011;9633;50.980;13.850;2022-12-18T03:58:32;15.77;;;7.40;;
18999;SDS011;9633;50.980;13.850;2022-12-18T04:00:28;19.10;;;8.52;;
18999;SDS011;9633;50.980;13.850;2022-12-18T04:02:11;17.83;;;7.60;;
18999;SDS011;9633;50.980;13.850;2022-12-18T04:03:46;15.18;;;7.70;;
18999;SDS011;9633;50.980;13.850;2022-12-18T04:05:22;18.75;;;8.45;;
18999;SDS011;9633;50.980;13.850;2022-12-18T04:06:58;16.98;;;7.28;;
18999;SDS011;9633;50.980;13.850;2022-12-18T04:08:31;13.45;;;6.78;;
18999;SDS011;9633;50.980;13.850;2022-12-18T04:10:10;16.08;;;8.05;;
18999;SDS011;9633;50.980;13.850;2022-12-18T04:11:45;20.48;;;7.30;;
18999;SDS011;9633;50.980;13.850;2022-12-18T04:13:23;16.38;;;6.90;;
18999;SDS011;9633;50.980;13.850;2022-12-18T04:14:57;16.08;;;7.65;;
18999;SDS011;9633;50.980;13.850;2022-12-18T04:16:30;17.23;;;7.80;;
18999;SDS011;9633;50.980;13.850;2022-12-18T04:18:08;17.45;;;7.85;;
18999;SDS011;9633;50.980;13.850;2022-12-18T04:19:44;15.55;;;7.32;;
18999;SDS011;9633;50.980;13.850;2022-12-18T04:21:18;16.58;;;7.53;;
18999;SDS011;9633;50.980;13.850;2022-12-18T04:22:52;16.52;;;7.80;;
18999;SDS011;9633;50.980;13.850;2022-12-18T04:24:25;14.98;;;7.05;;
18999;SDS011;9633;50.980;13.850;2022-12-18T04:26:08;19.30;;;7.53;;
18999;SDS011;9633;50.980;13.850;2022-12-18T04:27:56;11.10;;;5.80;;
18999;SDS011;9633;50.980;13.850;2022-12-18T04:29:29;13.55;;;6.65;;
18999;SDS011;9633;50.980;13.850;2022-12-18T04:31:02;13.02;;;6.50;;
18999;SDS011;9633;50.980;13.850;2022-12-18T04:32:36;12.45;;;6.55;;
18999;SDS011;9633;50.980;13.850;2022-12-18T04:34:09;13.55;;;6.20;;
18999;SDS011;9633;50.980;13.850;2022-12-18T04:35:48;12.48;;;6.70;;
18999;SDS011;9633;50.980;13.850;2022-12-18T04:37:21;14.90;;;7.07;;
18999;SDS011;9633;50.980;13.850;2022-12-18T04:38:55;13.70;;;7.80;;
18999;SDS011;9633;50.980;13.850;2022-12-18T04:40:28;17.25;;;7.60;;
18999;SDS011;9633;50.980;13.850;2022-12-18T04:42:11;13.73;;;6.88;;
18999;SDS011;9633;50.980;13.850;2022-12-18T04:43:44;15.80;;;7.55;;
18999;SDS011;9633;50.980;13.850;2022-12-18T04:45:17;13.57;;;6.70;;
18999;SDS011;9633;50.980;13.850;2022-12-18T04:46:51;15.15;;;7.22;;
18999;SDS011;9633;50.980;13.850;2022-12-18T04:48:23;15.85;;;7.15;;
18999;SDS011;9633;50.980;13.850;2022-12-18T04:49:57;15.45;;;7.65;;
18999;SDS011;9633;50.980;13.850;2022-12-18T04:51:30;16.77;;;7.72;;
18999;SDS011;9633;50.980;13.850;2022-12-18T04:53:03;14.23;;;6.97;;
18999;SDS011;9633;50.980;13.850;2022-12-18T04:54:36;16.15;;;7.55;;
18999;SDS011;9633;50.980;13.850;2022-12-18T04:56:09;17.83;;;7.63;;
18999;SDS011;9633;50.980;13.850;2022-12-18T04:57:44;13.77;;;6.22;;
18999;SDS011;9633;50.980;13.850;2022-12-18T04:59:16;15.45;;;7.30;;
18999;SDS011;9633;50.980;13.850;2022-12-18T05:00:49;13.35;;;6.65;;
18999;SDS011;9633;50.980;13.850;2022-12-18T05:02:21;13.98;;;7.40;;
18999;SDS011;9633;50.980;13.850;2022-12-18T05:03:55;15.15;;;7.00;;
18999;SDS011;9633;50.980;13.850;2022-12-18T05:05:29;14.15;;;7.25;;
18999;SDS011;9633;50.980;13.850;2022-12-18T05:07:03;12.30;;;6.43;;
18999;SDS011;9633;50.980;13.850;2022-12-18T05:08:36;13.65;;;6.90;;
18999;SDS011;9633;50.980;13.850;2022-12-18T05:10:09;17.27;;;7.47;;
18999;SDS011;9633;50.980;13.850;2022-12-18T05:11:42;14.40;;;7.43;;
18999;SDS011;9633;50.980;13.850;2022-12-18T05:13:16;14.20;;;6.80;;
18999;SDS011;9633;50.980;13.850;2022-12-18T05:14:49;15.18;;;6.85;;
18999;SDS011;9633;50.980;13.850;2022-12-18T05:16:22;13.38;;;6.95;;
18999;SDS011;9633;50.980;13.850;2022-12-18T05:17:56;15.90;;;7.00;;
18999;SDS011;9633;50.980;13.850;2022-12-18T05:19:29;15.90;;;6.93;;
18999;SDS011;9633;50.980;13.850;2022-12-18T05:21:04;16.17;;;7.35;;
18999;SDS011;9633;50.980;13.850;2022-12-18T05:22:38;17.40;;;7.35;;
18999;SDS011;9633;50.980;13.850;2022-12-18T05:24:11;16.05;;;6.65;;
18999;SDS011;9633;50.980;13.850;2022-12-18T05:25:46;14.13;;;6.65;;
18999;SDS011;9633;50.980;13.850;2022-12-18T05:27:22;18.38;;;7.80;;
18999;SDS011;9633;50.980;13.850;2022-12-18T05:28:56;15.48;;;7.65;;
18999;SDS011;9633;50.980;13.850;2022-12-18T05:30:29;18.08;;;8.13;;
18999;SDS011;9633;50.980;13.850;2022-12-18T05:32:01;17.27;;;8.45;;
18999;SDS011;9633;50.980;13.850;2022-12-18T05:33:34;14.45;;;7.10;;
18999;SDS011;9633;50.980;13.850;2022-12-18T05:35:09;21.63;;;7.93;;
18999;SDS011;9633;50.980;13.850;2022-12-18T05:36:44;17.60;;;7.55;;
18999;SDS011;9633;50.980;13.850;2022-12-18T05:38:16;20.17;;;7.78;;
18999;SDS011;9633;50.980;13.850;2022-12-18T05:39:49;16.10;;;7.47;;
18999;SDS011;9633;50.980;13.850;2022-12-18T05:41:22;16.20;;;8.15;;
18999;SDS011;9633;50.980;13.850;2022-12-18T05:42:55;13.80;;;6.82;;
18999;SDS011;9633;50.980;13.850;2022-12-18T05:44:28;14.90;;;7.40;;
18999;SDS011;9633;50.980;13.850;2022-12-18T05:46:02;15.98;;;8.30;;
18999;SDS011;9633;50.980;13.850;2022-12-18T05:47:36;14.80;;;7.78;;
18999;SDS011;9633;50.980;13.850;2022-12-18T05:49:09;18.60;;;7.88;;
18999;SDS011;9633;50.980;13.850;2022-12-18T05:50:43;16.10;;;7.75;;
18999;SDS011;9633;50.980;13.850;2022-12-18T05:52:18;17.77;;;8.45;;
18999;SDS011;9633;50.980;13.850;2022-12-18T05:53:51;18.80;;;8.93;;
18999;SDS011;9633;50.980;13.850;2022-12-18T05:55:24;16.52;;;7.57;;
18999;SDS011;9633;50.980;13.850;2022-12-18T05:56:57;19.42;;;8.00;;
18999;SDS011;9633;50.980;13.850;2022-12-18T05:58:30;18.40;;;8.65;;
18999;SDS011;9633;50.980;13.850;2022-12-18T06:00:04;17.55;;;8.43;;
18999;SDS011;9633;50.980;13.850;2022-12-18T06:01:42;13.80;;;7.65;;
18999;SDS011;9633;50.980;13.850;2022-12-18T06:03:15;18.52;;;7.95;;
18999;SDS011;9633;50.980;13.850;2022-12-18T06:04:48;20.58;;;8.90;;
18999;SDS011;9633;50.980;13.850;2022-12-18T06:06:22;14.32;;;7.25;;
18999;SDS011;9633;50.980;13.850;2022-12-18T06:07:58;18.42;;;8.20;;
18999;SDS011;9633;50.980;13.850;2022-12-18T06:09:30;17.95;;;8.85;;
18999;SDS011;9633;50.980;13.850;2022-12-18T06:11:04;18.15;;;8.43;;
18999;SDS011;9633;50.980;13.850;2022-12-18T06:12:36;18.88;;;8.88;;
18999;SDS011;9633;50.980;13.850;2022-12-18T06:14:09;18.00;;;8.05;;
18999;SDS011;9633;50.980;13.850;2022-12-18T06:15:42;16.02;;;8.55;;
18999;SDS011;9633;50.980;13.850;2022-12-18T06:17:16;17.33;;;8.00;;
18999;SDS011;9633;50.980;13.850;2022-12-18T06:18:49;18.80;;;9.07;;
18999;SDS011;9633;50.980;13.850;2022-12-18T06:20:21;18.27;;;8.43;;
18999;SDS011;9633;50.980;13.850;2022-12-18T06:22:00;20.35;;;8.52;;
18999;SDS011;9633;50.980;13.850;2022-12-18T06:23:35;17.95;;;8.52;;
18999;SDS011;9633;50.980;13.850;2022-12-18T06:25:09;17.75;;;8.55;;
18999;SDS011;9633;50.980;13.850;2022-12-18T06:26:43;22.40;;;9.30;;
18999;SDS011;9633;50.980;13.850;2022-12-18T06:28:16;20.77;;;8.57;;
18999;SDS011;9633;50.980;13.850;2022-12-18T06:29:48;18.23;;;8.48;;
18999;SDS011;9633;50.980;13.850;2022-12-18T06:31:21;19.98;;;9.13;;
18999;SDS011;9633;50.980;13.850;2022-12-18T06:32:55;20.13;;;8.73;;
18999;SDS011;9633;50.980;13.850;2022-12-18T06:34:28;18.20;;;8.48;;
18999;SDS011;9633;50.980;13.850;2022-12-18T06:36:02;19.92;;;8.68;;
18999;SDS011;9633;50.980;13.850;2022-12-18T06:37:36;17.90;;;8.20;;
18999;SDS011;9633;50.980;13.850;2022-12-18T06:39:10;19.80;;;8.88;;
18999;SDS011;9633;50.980;13.850;2022-12-18T06:40:43;17.77;;;8.45;;
18999;SDS011;9633;50.980;13.850;2022-12-18T06:42:16;19.42;;;8.95;;
18999;SDS011;9633;50.980;13.850;2022-12-18T06:43:52;17.48;;;8.80;;
18999;SDS011;9633;50.980;13.850;2022-12-18T06:45:30;17.27;;;8.50;;
18999;SDS011;9633;50.980;13.850;2022-12-18T06:47:03;16.48;;;8.38;;
18999;SDS011;9633;50.980;13.850;2022-12-18T06:48:36;19.10;;;8.90;;
18999;SDS011;9633;50.980;13.850;2022-12-18T06:50:10;19.17;;;9.02;;
18999;SDS011;9633;50.980;13.850;2022-12-18T06:51:44;20.92;;;9.10;;
18999;SDS011;9633;50.980;13.850;2022-12-18T06:53:17;18.92;;;8.98;;
18999;SDS011;9633;50.980;13.850;2022-12-18T06:54:51;17.80;;;8.52;;
18999;SDS011;9633;50.980;13.850;2022-12-18T06:56:24;21.05;;;9.75;;
18999;SDS011;9633;50.980;13.850;2022-12-18T06:57:57;22.63;;;9.05;;
18999;SDS011;9633;50.980;13.850;2022-12-18T06:59:29;20.48;;;10.13;;
18999;SDS011;9633;50.980;13.850;2022-12-18T07:01:03;21.00;;;8.85;;
18999;SDS011;9633;50.980;13.850;2022-12-18T07:02:38;18.33;;;8.77;;
18999;SDS011;9633;50.980;13.850;2022-12-18T07:04:11;23.20;;;9.82;;
18999;SDS011;9633;50.980;13.850;2022-12-18T07:05:45;23.77;;;10.68;;
18999;SDS011;9633;50.980;13.850;2022-12-18T07:07:18;23.33;;;8.95;;
18999;SDS011;9633;50.980;13.850;2022-12-18T07:08:53;21.63;;;9.45;;
18999;SDS011;9633;50.980;13.850;2022-12-18T07:10:28;19.90;;;9.40;;
18999;SDS011;9633;50.980;13.850;2022-12-18T07:12:01;18.05;;;9.25;;
18999;SDS011;9633;50.980;13.850;2022-12-18T07:13:36;23.27;;;10.00;;
18999;SDS011;9633;50.980;13.850;2022-12-18T07:15:10;19.52;;;9.80;;
18999;SDS011;9633;50.980;13.850;2022-12-18T07:16:43;21.50;;;10.05;;
18999;SDS011;9633;50.980;13.850;2022-12-18T07:18:16;22.42;;;9.93;;
18999;SDS011;9633;50.980;13.850;2022-12-18T07:19:49;21.30;;;9.88;;
18999;SDS011;9633;50.980;13.850;2022-12-18T07:21:22;22.42;;;9.55;;
18999;SDS011;9633;50.980;13.850;2022-12-18T07:22:56;21.70;;;9.55;;
18999;SDS011;9633;50.980;13.850;2022-12-18T07:24:29;22.60;;;9.88;;
18999;SDS011;9633;50.980;13.850;2022-12-18T07:26:04;23.55;;;9.63;;
18999;SDS011;9633;50.980;13.850;2022-12-18T07:27:38;21.00;;;9.70;;
18999;SDS011;9633;50.980;13.850;2022-12-18T07:29:11;23.05;;;9.52;;
18999;SDS011;9633;50.980;13.850;2022-12-18T07:30:44;24.05;;;10.82;;
18999;SDS011;9633;50.980;13.850;2022-12-18T07:32:18;20.25;;;9.50;;
18999;SDS011;9633;50.980;13.850;2022-12-18T07:33:51;26.35;;;10.82;;
18999;SDS011;9633;50.980;13.850;2022-12-18T07:35:28;21.13;;;10.65;;
18999;SDS011;9633;50.980;13.850;2022-12-18T07:37:01;22.38;;;10.52;;
18999;SDS011;9633;50.980;13.850;2022-12-18T07:38:34;21.77;;;10.05;;
18999;SDS011;9633;50.980;13.850;2022-12-18T07:40:07;23.50;;;10.85;;
18999;SDS011;9633;50.980;13.850;2022-12-18T07:41:43;25.02;;;10.63;;
18999;SDS011;9633;50.980;13.850;2022-12-18T07:43:40;20.60;;;10.75;;
18999;SDS011;9633;50.980;13.850;2022-12-18T07:45:14;22.83;;;10.98;;
18999;SDS011;9633;50.980;13.850;2022-12-18T07:46:48;19.52;;;9.93;;
18999;SDS011;9633;50.980;13.850;2022-12-18T07:48:21;21.73;;;9.80;;
18999;SDS011;9633;50.980;13.850;2022-12-18T07:49:54;22.83;;;9.95;;
18999;SDS011;9633;50.980;13.850;2022-12-18T07:51:28;17.55;;;9.35;;
18999;SDS011;9633;50.980;13.850;2022-12-18T07:53:01;18.95;;;9.52;;
18999;SDS011;9633;50.980;13.850;2022-12-18T07:54:36;20.90;;;10.23;;
18999;SDS011;9633;50.980;13.850;2022-12-18T07:56:10;21.30;;;10.23;;
18999;SDS011;9633;50.980;13.850;2022-12-18T07:58:03;17.13;;;9.20;;
18999;SDS011;9633;50.980;13.850;2022-12-18T07:59:36;20.77;;;10.45;;
18999;SDS011;9633;50.980;13.850;2022-12-18T08:01:10;21.83;;;10.20;;
18999;SDS011;9633;50.980;13.850;2022-12-18T08:02:44;21.52;;;10.10;;
18999;SDS011;9633;50.980;13.850;2022-12-18T08:04:18;22.35;;;9.68;;
18999;SDS011;9633;50.980;13.850;2022-12-18T08:05:52;18.92;;;9.95;;
18999;SDS011;9633;50.980;13.850;2022-12-18T08:07:25;22.80;;;11.30;;
18999;SDS011;9633;50.980;13.850;2022-12-18T08:08:58;23.92;;;12.27;;
18999;SDS011;9633;50.980;13.850;2022-12-18T08:10:31;24.80;;;12.95;;
18999;SDS011;9633;50.980;13.850;2022-12-18T08:12:05;29.55;;;13.70;;
18999;SDS011;9633;50.980;13.850;2022-12-18T08:13:39;28.85;;;13.73;;
18999;SDS011;9633;50.980;13.850;2022-12-18T08:15:13;31.67;;;14.73;;
18999;SDS011;9633;50.980;13.850;2022-12-18T08:16:46;31.88;;;14.20;;
18999;SDS011;9633;50.980;13.850;2022-12-18T08:18:19;34.13;;;14.85;;
18999;SDS011;9633;50.980;13.850;2022-12-18T08:19:52;35.05;;;15.00;;
18999;SDS011;9633;50.980;13.850;2022-12-18T08:21:27;33.72;;;15.82;;
18999;SDS011;9633;50.980;13.850;2022-12-18T08:23:01;30.42;;;15.63;;
18999;SDS011;9633;50.980;13.850;2022-12-18T08:24:34;28.20;;;15.05;;
18999;SDS011;9633;50.980;13.850;2022-12-18T08:26:07;28.73;;;14.88;;
18999;SDS011;9633;50.980;13.850;2022-12-18T08:27:41;30.08;;;15.30;;
18999;SDS011;9633;50.980;13.850;2022-12-18T08:29:15;29.92;;;15.00;;
18999;SDS011;9633;50.980;13.850;2022-12-18T08:30:52;32.97;;;15.57;;
18999;SDS011;9633;50.980;13.850;2022-12-18T08:32:26;30.67;;;15.40;;
18999;SDS011;9633;50.980;13.850;2022-12-18T08:33:59;30.65;;;15.77;;
18999;SDS011;9633;50.980;13.850;2022-12-18T08:35:34;30.77;;;15.70;;
18999;SDS011;9633;50.980;13.850;2022-12-18T08:37:15;32.85;;;15.13;;
18999;SDS011;9633;50.980;13.850;2022-12-18T08:38:49;31.27;;;15.07;;
18999;SDS011;9633;50.980;13.850;2022-12-18T08:40:22;31.75;;;16.23;;
18999;SDS011;9633;50.980;13.850;2022-12-18T08:41:56;31.63;;;15.65;;
18999;SDS011;9633;50.980;13.850;2022-12-18T08:43:46;31.13;;;15.70;;
18999;SDS011;9633;50.980;13.850;2022-12-18T08:45:38;28.63;;;14.43;;
18999;SDS011;9633;50.980;13.850;2022-12-18T08:47:11;31.50;;;15.18;;
18999;SDS011;9633;50.980;13.850;2022-12-18T08:48:45;30.20;;;14.80;;
18999;SDS011;9633;50.980;13.850;2022-12-18T08:50:18;29.05;;;14.45;;
18999;SDS011;9633;50.980;13.850;2022-12-18T08:51:53;29.75;;;15.07;;
18999;SDS011;9633;50.980;13.850;2022-12-18T08:53:28;24.30;;;13.10;;
18999;SDS011;9633;50.980;13.850;2022-12-18T08:55:06;27.13;;;14.80;;
18999;SDS011;9633;50.980;13.850;2022-12-18T08:56:40;29.15;;;14.98;;
18999;SDS011;9633;50.980;13.850;2022-12-18T08:58:14;29.77;;;15.25;;
18999;SDS011;9633;50.980;13.850;2022-12-18T08:59:47;28.40;;;15.18;;
18999;SDS011;9633;50.980;13.850;2022-12-18T09:01:21;27.23;;;15.68;;
18999;SDS011;9633;50.980;13.850;2022-12-18T09:02:55;28.23;;;15.93;;
18999;SDS011;9633;50.980;13.850;2022-12-18T09:04:28;28.20;;;15.55;;
18999;SDS011;9633;50.980;13.850;2022-12-18T09:06:02;28.90;;;15.20;;
18999;SDS011;9633;50.980;13.850;2022-12-18T09:07:35;24.08;;;14.93;;
18999;SDS011;9633;50.980;13.850;2022-12-18T09:09:08;29.23;;;15.40;;
18999;SDS011;9633;50.980;13.850;2022-12-18T09:10:43;28.23;;;16.23;;
18999;SDS011;9633;50.980;13.850;2022-12-18T09:12:17;26.77;;;15.65;;
18999;SDS011;9633;50.980;13.850;2022-12-18T09:13:50;30.05;;;16.20;;
18999;SDS011;9633;50.980;13.850;2022-12-18T09:15:25;27.75;;;15.73;;
18999;SDS011;9633;50.980;13.850;2022-12-18T09:16:59;31.77;;;16.10;;
18999;SDS011;9633;50.980;13.850;2022-12-18T09:18:32;31.88;;;16.63;;
18999;SDS011;9633;50.980;13.850;2022-12-18T09:20:06;34.40;;;17.65;;
18999;SDS011;9633;50.980;13.850;2022-12-18T09:21:40;32.65;;;18.15;;